sensor_id;sensor_type;location;lat;lon;timestamp;pressure;altitude;pressure_sealevel;temperature;humidity
48200;BME280;33990;44.602;10.976;2023-11-19T00:00:09;101687.88;;;19.49;42.73
48200;BME280;33990;44.602;10.976;2023-11-19T00:02:41;101681.53;;;19.50;42.90
48200;BME280;33990;44.602;10.976;2023-11-19T00:05:10;101679.81;;;19.49;42.58
48200;BME280;33990;44.602;10.976;2023-11-19T00:07:41;101678.97;;;19.49;42.66
48200;BME280;33990;44.602;10.976;2023-11-19T00:10:14;101677.22;;;19.48;42.63
48200;BME280;33990;44.602;10.976;2023-11-19T00:12:43;101676.38;;;19.47;42.63
48200;BME280;33990;44.602;10.976;2023-11-19T00:15:18;101672.81;;;19.47;42.48
48200;BME280;33990;44.602;10.976;2023-11-19T00:17:47;101677.34;;;19.46;42.30
48200;BME280;33990;44.602;10.976;2023-11-19T00:20:19;101675.63;;;19.45;42.48
48200;BME280;33990;44.602;10.976;2023-11-19T00:22:49;101678.31;;;19.45;42.53
48200;BME280;33990;44.602;10.976;2023-11-19T00:25:21;101682.84;;;19.45;42.39
48200;BME280;33990;44.602;10.976;2023-11-19T00:27:51;101678.41;;;19.44;42.31
48200;BME280;33990;44.602;10.976;2023-11-19T00:30:21;101684.63;;;19.44;42.34
48200;BME280;33990;44.602;10.976;2023-11-19T00:32:48;101674.03;;;19.43;42.23
48200;BME280;33990;44.602;10.976;2023-11-19T00:35:16;101679.38;;;19.43;42.32
48200;BME280;33990;44.602;10.976;2023-11-19T00:37:43;101669.63;;;19.42;42.33
48200;BME280;33990;44.602;10.976;2023-11-19T00:40:13;101656.19;;;19.42;42.44
48200;BME280;33990;44.602;10.976;2023-11-19T00:42:43;101656.19;;;19.42;42.24
48200;BME280;33990;44.602;10.976;2023-11-19T00:45:11;101660.72;;;19.41;42.17
48200;BME280;33990;44.602;10.976;2023-11-19T00:47:40;101668.78;;;19.41;42.46
48200;BME280;33990;44.602;10.976;2023-11-19T00:50:09;101684.03;;;19.41;42.29
48200;BME280;33990;44.602;10.976;2023-11-19T00:52:37;101695.72;;;19.40;42.29
48200;BME280;33990;44.602;10.976;2023-11-19T00:55:08;101701.09;;;19.40;42.22
48200;BME280;33990;44.602;10.976;2023-11-19T00:57:35;101706.47;;;19.40;42.34
48200;BME280;33990;44.602;10.976;2023-11-19T01:00:05;101700.22;;;19.39;42.01
48200;BME280;33990;44.602;10.976;2023-11-19T01:02:52;101707.44;;;19.39;42.24
48200;BME280;33990;44.602;10.976;2023-11-19T01:05:20;101699.50;;;19.37;42.16
48200;BME280;33990;44.602;10.976;2023-11-19T01:07:51;101693.16;;;19.38;42.18
48200;BME280;33990;44.602;10.976;2023-11-19T01:10:22;101697.75;;;19.36;42.29
48200;BME280;33990;44.602;10.976;2023-11-19T01:12:49;101689.72;;;19.36;42.06
48200;BME280;33990;44.602;10.976;2023-11-19T01:15:17;101678.13;;;19.36;42.30
48200;BME280;33990;44.602;10.976;2023-11-19T01:17:46;101672.75;;;19.36;42.23
48200;BME280;33990;44.602;10.976;2023-11-19T01:20:16;101674.56;;;19.35;42.16
48200;BME280;33990;44.602;10.976;2023-11-19T01:22:44;101666.53;;;19.35;42.13
48200;BME280;33990;44.602;10.976;2023-11-19T01:25:11;101669.31;;;19.34;42.04
48200;BME280;33990;44.602;10.976;2023-11-19T01:27:39;101670.19;;;19.34;42.14
48200;BME280;33990;44.602;10.976;2023-11-19T01:30:07;101663.09;;;19.33;42.12
48200;BME280;33990;44.602;10.976;2023-11-19T01:32:40;101669.31;;;19.34;41.93
48200;BME280;33990;44.602;10.976;2023-11-19T01:35:07;101668.47;;;19.33;42.13
48200;BME280;33990;44.602;10.976;2023-11-19T01:37:35;101662.25;;;19.33;42.16
48200;BME280;33990;44.602;10.976;2023-11-19T01:40:04;101650.63;;;19.32;42.06
48200;BME280;33990;44.602;10.976;2023-11-19T01:42:38;101644.41;;;19.32;42.06
48200;BME280;33990;44.602;10.976;2023-11-19T01:45:07;101657.81;;;19.32;42.14
48200;BME280;33990;44.602;10.976;2023-11-19T01:47:37;101655.28;;;19.30;42.04
48200;BME280;33990;44.602;10.976;2023-11-19T01:50:06;101656.13;;;19.31;42.24
48200;BME280;33990;44.602;10.976;2023-11-19T01:52:35;101669.53;;;19.31;42.25
48200;BME280;33990;44.602;10.976;2023-11-19T01:55:08;101656.25;;;19.29;42.10
48200;BME280;33990;44.602;10.976;2023-11-19T01:57:38;101651.72;;;19.30;42.12
48200;BME280;33990;44.602;10.976;2023-11-19T02:00:08;101645.50;;;19.29;42.20
48200;BME280;33990;44.602;10.976;2023-11-19T02:02:43;101634.75;;;19.29;42.28
48200;BME280;33990;44.602;10.976;2023-11-19T02:05:12;101634.75;;;19.29;42.06
48200;BME280;33990;44.602;10.976;2023-11-19T02:07:43;101639.28;;;19.29;42.17
48200;BME280;33990;44.602;10.976;2023-11-19T02:10:12;101633.16;;;19.26;42.14
48200;BME280;33990;44.602;10.976;2023-11-19T02:12:42;101640.22;;;19.27;42.17
48200;BME280;33990;44.602;10.976;2023-11-19T02:15:12;101626.94;;;19.26;42.16
48200;BME280;33990;44.602;10.976;2023-11-19T02:17:39;101625.09;;;19.26;42.12
48200;BME280;33990;44.602;10.976;2023-11-19T02:20:08;101625.09;;;19.26;42.18
48200;BME280;33990;44.602;10.976;2023-11-19T02:22:42;101628.75;;;19.25;42.10
48200;BME280;33990;44.602;10.976;2023-11-19T02:25:20;101630.59;;;19.25;42.28
48200;BME280;33990;44.602;10.976;2023-11-19T02:27:56;101629.63;;;19.26;42.24
48200;BME280;33990;44.602;10.976;2023-11-19T02:30:24;101610.06;;;19.24;42.20
48200;BME280;33990;44.602;10.976;2023-11-19T02:32:56;101610.06;;;19.24;42.06
48200;BME280;33990;44.602;10.976;2023-11-19T02:35:26;101596.63;;;19.24;42.21
48200;BME280;33990;44.602;10.976;2023-11-19T02:37:56;101601.28;;;19.22;42.02
48200;BME280;33990;44.602;10.976;2023-11-19T02:40:24;101597.63;;;19.23;41.87
48200;BME280;33990;44.602;10.976;2023-11-19T02:42:53;101602.13;;;19.22;42.14
48200;BME280;33990;44.602;10.976;2023-11-19T02:45:23;101580.66;;;19.22;42.10
48200;BME280;33990;44.602;10.976;2023-11-19T02:47:51;101577.13;;;19.22;42.20
48200;BME280;33990;44.602;10.976;2023-11-19T02:50:19;101575.41;;;19.21;42.18
48200;BME280;33990;44.602;10.976;2023-11-19T02:52:54;101568.22;;;19.21;42.02
48200;BME280;33990;44.602;10.976;2023-11-19T02:55:24;101567.34;;;19.21;42.14
48200;BME280;33990;44.602;10.976;2023-11-19T02:57:52;101575.50;;;19.19;42.17
48200;BME280;33990;44.602;10.976;2023-11-19T03:00:21;101554.88;;;19.20;42.03
48200;BME280;33990;44.602;10.976;2023-11-19T03:02:59;101550.41;;;19.20;42.05
48200;BME280;33990;44.602;10.976;2023-11-19T03:05:27;101548.78;;;19.18;42.14
48200;BME280;33990;44.602;10.976;2023-11-19T03:07:57;101553.19;;;19.19;42.07
48200;BME280;33990;44.602;10.976;2023-11-19T03:10:25;101549.63;;;19.18;42.07
48200;BME280;33990;44.602;10.976;2023-11-19T03:12:52;101541.72;;;19.17;42.37
48200;BME280;33990;44.602;10.976;2023-11-19T03:15:19;101539.03;;;19.17;42.35
48200;BME280;33990;44.602;10.976;2023-11-19T03:17:48;101528.28;;;19.17;42.25
48200;BME280;33990;44.602;10.976;2023-11-19T03:20:16;101531.84;;;19.17;42.24
48200;BME280;33990;44.602;10.976;2023-11-19T03:22:44;101544.41;;;19.17;42.33
48200;BME280;33990;44.602;10.976;2023-11-19T03:25:11;101546.22;;;19.16;41.91
48200;BME280;33990;44.602;10.976;2023-11-19T03:27:39;101547.19;;;19.15;42.20
48200;BME280;33990;44.602;10.976;2023-11-19T03:30:09;101543.53;;;19.16;42.20
48200;BME280;33990;44.602;10.976;2023-11-19T03:32:37;101533.75;;;19.15;42.06
48200;BME280;33990;44.602;10.976;2023-11-19T03:35:06;101546.31;;;19.15;42.21
48200;BME280;33990;44.602;10.976;2023-11-19T03:37:34;101540.09;;;19.14;42.18
48200;BME280;33990;44.602;10.976;2023-11-19T03:40:03;101534.75;;;19.14;42.24
48200;BME280;33990;44.602;10.976;2023-11-19T03:42:31;101531.19;;;19.14;42.21
48200;BME280;33990;44.602;10.976;2023-11-19T03:44:58;101533.88;;;19.14;42.35
48200;BME280;33990;44.602;10.976;2023-11-19T03:47:26;101530.34;;;19.13;42.25
48200;BME280;33990;44.602;10.976;2023-11-19T03:49:54;101533.13;;;19.12;42.43
48200;BME280;33990;44.602;10.976;2023-11-19T03:52:21;101530.44;;;19.12;42.41
48200;BME280;33990;44.602;10.976;2023-11-19T03:54:49;101534.75;;;19.14;42.52
48200;BME280;33990;44.602;10.976;2023-11-19T03:57:16;101525.06;;;19.12;42.58
48200;BME280;33990;44.602;10.976;2023-11-19T03:59:44;101539.25;;;19.14;42.52
48200;BME280;33990;44.602;10.976;2023-11-19T04:02:11;101539.25;;;19.14;42.46
48200;BME280;33990;44.602;10.976;2023-11-19T04:04:39;101546.53;;;19.12;42.45
48200;BME280;33990;44.602;10.976;2023-11-19T04:07:06;101543.84;;;19.12;42.51
48200;BME280;33990;44.602;10.976;2023-11-19T04:09:34;101552.78;;;19.12;42.51
48200;BME280;33990;44.602;10.976;2023-11-19T04:12:01;101553.88;;;19.10;42.60
48200;BME280;33990;44.602;10.976;2023-11-19T04:14:29;101558.38;;;19.09;42.53
48200;BME280;33990;44.602;10.976;2023-11-19T04:16:56;101559.22;;;19.10;42.43
48200;BME280;33990;44.602;10.976;2023-11-19T04:19:25;101565.56;;;19.09;42.55
48200;BME280;33990;44.602;10.976;2023-11-19T04:21:52;101553.09;;;19.08;42.69
48200;BME280;33990;44.602;10.976;2023-11-19T04:24:20;101550.44;;;19.08;42.61
48200;BME280;33990;44.602;10.976;2023-11-19T04:26:47;101540.56;;;19.08;42.52
48200;BME280;33990;44.602;10.976;2023-11-19T04:29:16;101548.63;;;19.08;42.63
48200;BME280;33990;44.602;10.976;2023-11-19T04:31:46;101541.53;;;19.07;42.59
48200;BME280;33990;44.602;10.976;2023-11-19T04:34:14;101540.66;;;19.07;42.54
48200;BME280;33990;44.602;10.976;2023-11-19T04:36:42;101543.34;;;19.07;42.47
48200;BME280;33990;44.602;10.976;2023-11-19T04:39:11;101542.63;;;19.05;42.47
48200;BME280;33990;44.602;10.976;2023-11-19T04:41:46;101540.78;;;19.05;42.45
48200;BME280;33990;44.602;10.976;2023-11-19T04:44:16;101548.00;;;19.05;42.53
48200;BME280;33990;44.602;10.976;2023-11-19T04:46:43;101534.66;;;19.03;42.51
48200;BME280;33990;44.602;10.976;2023-11-19T04:49:12;101536.50;;;19.02;42.45
48200;BME280;33990;44.602;10.976;2023-11-19T04:51:43;101533.81;;;19.02;42.51
48200;BME280;33990;44.602;10.976;2023-11-19T04:54:11;101522.22;;;19.02;42.46
48200;BME280;33990;44.602;10.976;2023-11-19T04:56:38;101522.22;;;19.02;42.59
48200;BME280;33990;44.602;10.976;2023-11-19T04:59:06;101533.81;;;19.02;42.41
48200;BME280;33990;44.602;10.976;2023-11-19T05:01:34;101530.28;;;19.02;42.41
48200;BME280;33990;44.602;10.976;2023-11-19T05:04:02;101528.56;;;19.01;42.63
48200;BME280;33990;44.602;10.976;2023-11-19T05:06:31;101524.91;;;19.02;42.57
48200;BME280;33990;44.602;10.976;2023-11-19T05:08:59;101508.94;;;19.00;42.55
48200;BME280;33990;44.602;10.976;2023-11-19T05:11:35;101516.00;;;19.01;42.56
48200;BME280;33990;44.602;10.976;2023-11-19T05:14:03;101507.09;;;19.01;42.60
48200;BME280;33990;44.602;10.976;2023-11-19T05:16:33;101496.38;;;19.01;42.57
48200;BME280;33990;44.602;10.976;2023-11-19T05:19:00;101502.72;;;19.00;42.44
48200;BME280;33990;44.602;10.976;2023-11-19T05:21:28;101495.59;;;18.99;42.74
48200;BME280;33990;44.602;10.976;2023-11-19T05:23:56;101492.94;;;18.99;42.60
48200;BME280;33990;44.602;10.976;2023-11-19T05:26:24;101487.56;;;18.99;42.73
48200;BME280;33990;44.602;10.976;2023-11-19T05:28:51;101486.63;;;19.00;42.84
48200;BME280;33990;44.602;10.976;2023-11-19T05:31:18;101486.63;;;19.00;42.71
48200;BME280;33990;44.602;10.976;2023-11-19T05:33:46;101487.47;;;19.00;42.65
48200;BME280;33990;44.602;10.976;2023-11-19T05:36:13;101482.09;;;19.00;42.87
48200;BME280;33990;44.602;10.976;2023-11-19T05:38:41;101475.00;;;18.99;42.66
48200;BME280;33990;44.602;10.976;2023-11-19T05:41:08;101466.09;;;18.99;42.70
48200;BME280;33990;44.602;10.976;2023-11-19T05:43:36;101466.09;;;18.99;42.83
48200;BME280;33990;44.602;10.976;2023-11-19T05:46:04;101465.38;;;18.97;42.63
48200;BME280;33990;44.602;10.976;2023-11-19T05:48:46;101462.69;;;18.97;42.85
48200;BME280;33990;44.602;10.976;2023-11-19T05:51:14;101452.94;;;18.96;42.63
48200;BME280;33990;44.602;10.976;2023-11-19T05:53:44;101454.72;;;18.95;42.71
48200;BME280;33990;44.602;10.976;2023-11-19T05:56:17;101452.03;;;18.95;42.55
48200;BME280;33990;44.602;10.976;2023-11-19T05:58:48;101452.16;;;18.94;42.64
48200;BME280;33990;44.602;10.976;2023-11-19T06:01:18;101449.50;;;18.94;42.43
48200;BME280;33990;44.602;10.976;2023-11-19T06:03:46;101448.63;;;18.93;42.57
48200;BME280;33990;44.602;10.976;2023-11-19T06:06:18;101445.09;;;18.93;42.48
48200;BME280;33990;44.602;10.976;2023-11-19T06:08:45;101447.78;;;18.93;42.58
48200;BME280;33990;44.602;10.976;2023-11-19T06:11:14;101446.03;;;18.92;42.44
48200;BME280;33990;44.602;10.976;2023-11-19T06:13:46;101438.00;;;18.92;42.55
48200;BME280;33990;44.602;10.976;2023-11-19T06:16:15;101439.97;;;18.90;42.54
48200;BME280;33990;44.602;10.976;2023-11-19T06:18:42;101438.97;;;18.91;42.35
48200;BME280;33990;44.602;10.976;2023-11-19T06:21:12;101432.88;;;18.89;42.42
48200;BME280;33990;44.602;10.976;2023-11-19T06:23:39;101431.91;;;18.90;42.61
48200;BME280;33990;44.602;10.976;2023-11-19T06:26:06;101445.31;;;18.90;42.55
48200;BME280;33990;44.602;10.976;2023-11-19T06:28:34;101449.84;;;18.89;42.45
48200;BME280;33990;44.602;10.976;2023-11-19T06:31:01;101442.75;;;18.88;42.63
48200;BME280;33990;44.602;10.976;2023-11-19T06:33:30;101450.91;;;18.87;42.50
48200;BME280;33990;44.602;10.976;2023-11-19T06:35:59;101459.81;;;18.87;42.51
48200;BME280;33990;44.602;10.976;2023-11-19T06:38:26;101461.53;;;18.88;42.48
48200;BME280;33990;44.602;10.976;2023-11-19T06:40:54;101459.72;;;18.89;42.63
48200;BME280;33990;44.602;10.976;2023-11-19T06:43:21;101458.09;;;18.86;42.46
48200;BME280;33990;44.602;10.976;2023-11-19T06:45:49;101467.00;;;18.87;42.61
48200;BME280;33990;44.602;10.976;2023-11-19T06:48:16;101476.88;;;18.86;42.47
48200;BME280;33990;44.602;10.976;2023-11-19T06:50:43;101478.72;;;18.86;42.64
48200;BME280;33990;44.602;10.976;2023-11-19T06:53:11;101474.19;;;18.86;42.55
48200;BME280;33990;44.602;10.976;2023-11-19T06:55:38;101470.66;;;18.86;42.55
48200;BME280;33990;44.602;10.976;2023-11-19T06:58:06;101469.81;;;18.85;42.56
48200;BME280;33990;44.602;10.976;2023-11-19T07:00:34;101468.09;;;18.84;42.57
48200;BME280;33990;44.602;10.976;2023-11-19T07:03:03;101477.94;;;18.84;42.48
48200;BME280;33990;44.602;10.976;2023-11-19T07:05:30;101468.09;;;18.84;42.63
48200;BME280;33990;44.602;10.976;2023-11-19T07:07:58;101472.59;;;18.84;42.60
48200;BME280;33990;44.602;10.976;2023-11-19T07:10:25;101477.09;;;18.83;42.55
48200;BME280;33990;44.602;10.976;2023-11-19T07:12:53;101473.56;;;18.83;42.53
48200;BME280;33990;44.602;10.976;2023-11-19T07:15:20;101464.53;;;18.84;42.56
48200;BME280;33990;44.602;10.976;2023-11-19T07:17:47;101469.06;;;18.83;42.56
48200;BME280;33990;44.602;10.976;2023-11-19T07:20:27;101472.59;;;18.84;42.55
48200;BME280;33990;44.602;10.976;2023-11-19T07:22:55;101478.84;;;18.84;42.65
48200;BME280;33990;44.602;10.976;2023-11-19T07:25:24;101480.75;;;18.82;42.68
48200;BME280;33990;44.602;10.976;2023-11-19T07:27:52;101490.63;;;18.82;42.63
48200;BME280;33990;44.602;10.976;2023-11-19T07:30:19;101491.50;;;18.82;42.60
48200;BME280;33990;44.602;10.976;2023-11-19T07:32:47;101493.31;;;18.82;42.74
48200;BME280;33990;44.602;10.976;2023-11-19T07:35:15;101501.38;;;18.82;42.72
48200;BME280;33990;44.602;10.976;2023-11-19T07:37:43;101492.34;;;18.83;42.72
48200;BME280;33990;44.602;10.976;2023-11-19T07:40:10;101494.16;;;18.82;42.77
48200;BME280;33990;44.602;10.976;2023-11-19T07:42:38;101507.59;;;18.82;42.83
48200;BME280;33990;44.602;10.976;2023-11-19T07:45:06;101516.63;;;18.81;42.87
48200;BME280;33990;44.602;10.976;2023-11-19T07:47:34;101521.00;;;18.82;42.83
48200;BME280;33990;44.602;10.976;2023-11-19T07:50:01;101517.47;;;18.82;42.76
48200;BME280;33990;44.602;10.976;2023-11-19T07:52:29;101520.16;;;18.82;42.68
48200;BME280;33990;44.602;10.976;2023-11-19T07:54:56;101517.47;;;18.82;42.92
48200;BME280;33990;44.602;10.976;2023-11-19T07:57:24;101528.19;;;18.82;42.93
48200;BME280;33990;44.602;10.976;2023-11-19T07:59:51;101532.72;;;18.81;42.56
48200;BME280;33990;44.602;10.976;2023-11-19T08:02:19;101525.50;;;18.82;42.58
48200;BME280;33990;44.602;10.976;2023-11-19T08:04:47;101521.13;;;18.81;42.47
48200;BME280;33990;44.602;10.976;2023-11-19T08:07:18;101517.47;;;18.82;42.37
48200;BME280;33990;44.602;10.976;2023-11-19T08:09:46;101519.06;;;18.84;42.49
48200;BME280;33990;44.602;10.976;2023-11-19T08:12:13;101521.75;;;18.84;42.47
48200;BME280;33990;44.602;10.976;2023-11-19T08:14:44;101526.88;;;18.87;42.10
48200;BME280;33990;44.602;10.976;2023-11-19T08:17:12;101524.09;;;18.89;41.70
48200;BME280;33990;44.602;10.976;2023-11-19T08:19:39;101533.63;;;18.93;41.93
48200;BME280;33990;44.602;10.976;2023-11-19T08:22:07;101521.94;;;18.94;41.80
48200;BME280;33990;44.602;10.976;2023-11-19T08:24:36;101532.53;;;18.95;41.77
48200;BME280;33990;44.602;10.976;2023-11-19T08:27:03;101543.19;;;18.97;41.58
48200;BME280;33990;44.602;10.976;2023-11-19T08:29:32;101540.50;;;18.97;41.71
48200;BME280;33990;44.602;10.976;2023-11-19T08:32:00;101537.81;;;18.97;41.76
48200;BME280;33990;44.602;10.976;2023-11-19T08:34:29;101543.19;;;18.97;41.87
48200;BME280;33990;44.602;10.976;2023-11-19T08:36:57;101545.88;;;18.97;41.67
48200;BME280;33990;44.602;10.976;2023-11-19T08:39:26;101538.66;;;18.97;41.80
48200;BME280;33990;44.602;10.976;2023-11-19T08:41:53;101534.16;;;18.98;41.73
48200;BME280;33990;44.602;10.976;2023-11-19T08:44:22;101527.09;;;18.97;41.90
48200;BME280;33990;44.602;10.976;2023-11-19T08:46:50;101517.19;;;18.97;41.83
48200;BME280;33990;44.602;10.976;2023-11-19T08:49:17;101521.72;;;18.97;41.89
48200;BME280;33990;44.602;10.976;2023-11-19T08:51:45;101521.72;;;18.97;41.38
48200;BME280;33990;44.602;10.976;2023-11-19T08:54:12;101526.78;;;18.89;40.73
48200;BME280;33990;44.602;10.976;2023-11-19T08:56:41;101522.81;;;18.82;39.89
48200;BME280;33990;44.602;10.976;2023-11-19T08:59:08;101517.16;;;18.73;39.35
48200;BME280;33990;44.602;10.976;2023-11-19T09:01:36;101516.94;;;18.64;38.83
48200;BME280;33990;44.602;10.976;2023-11-19T09:04:03;101513.00;;;18.57;38.17
48200;BME280;33990;44.602;10.976;2023-11-19T09:06:32;101516.84;;;18.52;38.53
48200;BME280;33990;44.602;10.976;2023-11-19T09:08:59;101515.16;;;18.51;38.62
48200;BME280;33990;44.602;10.976;2023-11-19T09:11:30;101513.66;;;18.47;38.08
48200;BME280;33990;44.602;10.976;2023-11-19T09:13:57;101518.38;;;18.44;37.95
48200;BME280;33990;44.602;10.976;2023-11-19T09:16:25;101512.25;;;18.42;37.76
48200;BME280;33990;44.602;10.976;2023-11-19T09:18:52;101520.28;;;18.42;37.63
48200;BME280;33990;44.602;10.976;2023-11-19T09:21:20;101515.16;;;18.39;37.32
48200;BME280;33990;44.602;10.976;2023-11-19T09:23:47;101508.06;;;18.38;37.09
48200;BME280;33990;44.602;10.976;2023-11-19T09:26:16;101519.44;;;18.41;37.18
48200;BME280;33990;44.602;10.976;2023-11-19T09:28:44;101522.00;;;18.43;36.90
48200;BME280;33990;44.602;10.976;2023-11-19T09:31:14;101528.13;;;18.45;36.94
48200;BME280;33990;44.602;10.976;2023-11-19T09:33:42;101532.84;;;18.41;36.33
48200;BME280;33990;44.602;10.976;2023-11-19T09:36:13;101536.59;;;18.39;36.60
48200;BME280;33990;44.602;10.976;2023-11-19T09:38:41;101531.22;;;18.39;36.73
48200;BME280;33990;44.602;10.976;2023-11-19T09:41:09;101530.16;;;18.41;36.99
48200;BME280;33990;44.602;10.976;2023-11-19T09:43:39;101533.91;;;18.39;36.81
48200;BME280;33990;44.602;10.976;2023-11-19T09:46:09;101535.84;;;18.37;37.02
48200;BME280;33990;44.602;10.976;2023-11-19T09:48:39;101528.78;;;18.36;37.05
48200;BME280;33990;44.602;10.976;2023-11-19T09:51:10;101519.97;;;18.34;37.18
48200;BME280;33990;44.602;10.976;2023-11-19T09:53:39;101531.88;;;18.29;36.68
48200;BME280;33990;44.602;10.976;2023-11-19T09:56:07;101523.97;;;18.28;36.65
48200;BME280;33990;44.602;10.976;2023-11-19T09:58:35;101518.47;;;18.29;36.56
48200;BME280;33990;44.602;10.976;2023-11-19T10:01:03;101513.88;;;18.32;36.66
48200;BME280;33990;44.602;10.976;2023-11-19T10:03:37;101513.03;;;18.31;36.45
48200;BME280;33990;44.602;10.976;2023-11-19T10:06:08;101513.97;;;18.30;36.33
48200;BME280;33990;44.602;10.976;2023-11-19T10:08:39;101520.44;;;18.27;36.04
48200;BME280;33990;44.602;10.976;2023-11-19T10:11:07;101511.63;;;18.25;35.95
48200;BME280;33990;44.602;10.976;2023-11-19T10:13:36;101500.78;;;18.27;36.11
48200;BME280;33990;44.602;10.976;2023-11-19T10:16:10;101499.00;;;18.27;36.08
48200;BME280;33990;44.602;10.976;2023-11-19T10:18:46;101494.69;;;18.25;35.77
48200;BME280;33990;44.602;10.976;2023-11-19T10:21:14;101493.00;;;18.24;35.92
48200;BME280;33990;44.602;10.976;2023-11-19T10:23:56;101499.06;;;18.26;35.87
48200;BME280;33990;44.602;10.976;2023-11-19T10:26:26;101492.88;;;18.25;35.86
48200;BME280;33990;44.602;10.976;2023-11-19T10:28:55;101498.22;;;18.25;35.89
48200;BME280;33990;44.602;10.976;2023-11-19T10:31:23;101496.31;;;18.27;35.98
48200;BME280;33990;44.602;10.976;2023-11-19T10:33:54;101487.50;;;18.25;35.85
48200;BME280;33990;44.602;10.976;2023-11-19T10:36:22;101482.16;;;18.25;35.83
48200;BME280;33990;44.602;10.976;2023-11-19T10:38:55;101482.03;;;18.27;36.03
48200;BME280;33990;44.602;10.976;2023-11-19T10:43:55;101478.06;;;18.33;36.15
48200;BME280;33990;44.602;10.976;2023-11-19T10:46:36;101476.25;;;18.33;36.33
48200;BME280;33990;44.602;10.976;2023-11-19T10:49:03;101474.41;;;18.34;36.12
48200;BME280;33990;44.602;10.976;2023-11-19T10:51:31;101469.06;;;18.34;36.22
48200;BME280;33990;44.602;10.976;2023-11-19T10:54:03;101468.84;;;18.37;36.32
48200;BME280;33990;44.602;10.976;2023-11-19T10:56:34;101471.53;;;18.37;36.26
48200;BME280;33990;44.602;10.976;2023-11-19T10:59:02;101465.09;;;18.39;36.38
48200;BME280;33990;44.602;10.976;2023-11-19T11:01:53;101471.19;;;18.41;36.58
48200;BME280;33990;44.602;10.976;2023-11-19T11:04:25;101462.16;;;18.42;36.47
48200;BME280;33990;44.602;10.976;2023-11-19T11:06:55;101451.44;;;18.42;36.49
48200;BME280;33990;44.602;10.976;2023-11-19T11:09:26;101450.59;;;18.42;36.62
48200;BME280;33990;44.602;10.976;2023-11-19T11:11:56;101441.56;;;18.43;36.81
48200;BME280;33990;44.602;10.976;2023-11-19T11:14:27;101428.94;;;18.45;36.89
48200;BME280;33990;44.602;10.976;2023-11-19T11:16:56;101430.63;;;18.46;36.99
48200;BME280;33990;44.602;10.976;2023-11-19T11:19:24;101439.44;;;18.48;37.02
48200;BME280;33990;44.602;10.976;2023-11-19T11:21:53;101433.09;;;18.49;36.96
48200;BME280;33990;44.602;10.976;2023-11-19T11:30:29;101427.69;;;18.62;38.56
48200;BME280;33990;44.602;10.976;2023-11-19T11:35:55;101416.53;;;18.68;39.14
48200;BME280;33990;44.602;10.976;2023-11-19T11:38:29;101409.25;;;18.70;39.30
48200;BME280;33990;44.602;10.976;2023-11-19T11:41:23;101409.13;;;18.71;39.00
48200;BME280;33990;44.602;10.976;2023-11-19T11:43:56;101417.91;;;18.73;39.48
48200;BME280;33990;44.602;10.976;2023-11-19T11:49:08;101395.25;;;18.77;39.73
48200;BME280;33990;44.602;10.976;2023-11-19T12:02:19;101360.81;;;18.84;40.44
48200;BME280;33990;44.602;10.976;2023-11-19T12:04:50;101365.19;;;18.85;40.53
48200;BME280;33990;44.602;10.976;2023-11-19T12:07:21;101351.66;;;18.87;40.67
48200;BME280;33990;44.602;10.976;2023-11-19T12:09:53;101361.31;;;18.89;40.79
48200;BME280;33990;44.602;10.976;2023-11-19T12:12:23;101369.13;;;18.92;41.17
48200;BME280;33990;44.602;10.976;2023-11-19T12:20:02;101348.50;;;18.93;40.29
48200;BME280;33990;44.602;10.976;2023-11-19T12:22:30;101349.38;;;18.93;40.27
48200;BME280;33990;44.602;10.976;2023-11-19T12:24:58;101343.25;;;18.91;40.18
48200;BME280;33990;44.602;10.976;2023-11-19T12:27:26;101337.88;;;18.91;40.26
48200;BME280;33990;44.602;10.976;2023-11-19T12:29:55;101347.03;;;18.89;40.88
48200;BME280;33990;44.602;10.976;2023-11-19T12:32:24;101339.09;;;18.87;43.00
48200;BME280;33990;44.602;10.976;2023-11-19T12:34:52;101332.25;;;18.83;43.95
48200;BME280;33990;44.602;10.976;2023-11-19T12:37:20;101324.44;;;18.80;44.51
48200;BME280;33990;44.602;10.976;2023-11-19T12:39:48;101322.00;;;18.77;45.25
48200;BME280;33990;44.602;10.976;2023-11-19T12:42:15;101331.13;;;18.74;45.55
48200;BME280;33990;44.602;10.976;2023-11-19T12:45:00;101313.63;;;18.69;45.84
48200;BME280;33990;44.602;10.976;2023-11-19T12:47:28;101310.19;;;18.67;46.02
48200;BME280;33990;44.602;10.976;2023-11-19T12:49:58;101311.31;;;18.64;46.30
48200;BME280;33990;44.602;10.976;2023-11-19T12:52:26;101317.63;;;18.63;46.52
48200;BME280;33990;44.602;10.976;2023-11-19T12:54:54;101313.22;;;18.62;46.55
48200;BME280;33990;44.602;10.976;2023-11-19T12:57:38;101307.88;;;18.62;47.30
48200;BME280;33990;44.602;10.976;2023-11-19T13:00:06;101296.28;;;18.62;47.86
48200;BME280;33990;44.602;10.976;2023-11-19T13:02:47;101291.06;;;18.60;49.05
48200;BME280;33990;44.602;10.976;2023-11-19T13:08:04;101289.44;;;18.58;49.37
48200;BME280;33990;44.602;10.976;2023-11-19T13:10:52;101291.28;;;18.57;49.20
48200;BME280;33990;44.602;10.976;2023-11-19T13:13:22;101294.94;;;18.56;48.83
48200;BME280;33990;44.602;10.976;2023-11-19T13:15:49;101279.69;;;18.57;48.84
48200;BME280;33990;44.602;10.976;2023-11-19T13:18:17;101273.50;;;18.56;49.80
48200;BME280;33990;44.602;10.976;2023-11-19T13:20:44;101280.44;;;18.59;51.08
48200;BME280;33990;44.602;10.976;2023-11-19T13:23:12;101272.28;;;18.60;51.98